createdAt,value
2019-01-14T00:02:21.875Z,6.10
2019-01-14T00:04:55.624Z,4.93
2019-01-14T00:07:25.754Z,9.10
2019-01-14T00:09:55.723Z,8.37
2019-01-14T00:12:25.620Z,6.03
2019-01-14T00:14:55.451Z,4.57
2019-01-14T00:17:25.430Z,8.27
2019-01-14T00:19:58.134Z,5.17
2019-01-14T00:22:29.532Z,7.87
2019-01-14T00:24:59.357Z,5.90
2019-01-14T00:27:29.216Z,8.07
2019-01-14T00:30:07.645Z,9.10
2019-01-14T00:32:51.892Z,11.00
2019-01-14T00:35:21.775Z,6.73
2019-01-14T00:37:51.918Z,6.37
2019-01-14T00:40:33.806Z,9.07
2019-01-14T00:43:04.322Z,8.60
2019-01-14T00:45:35.177Z,10.93
2019-01-14T00:48:06.862Z,6.30
2019-01-14T00:50:36.922Z,9.40
2019-01-14T00:53:19.014Z,7.70
2019-01-14T00:55:48.810Z,10.00
2019-01-14T00:58:18.664Z,8.30
2019-01-14T01:00:48.497Z,8.60
2019-01-14T01:03:18.310Z,7.67
2019-01-14T01:05:49.975Z,4.73
2019-01-14T01:08:19.939Z,8.63
2019-01-14T01:10:53.383Z,17.93
2019-01-14T01:13:23.195Z,8.67
2019-01-14T01:15:59.804Z,9.20
2019-01-14T01:18:29.040Z,9.37
2019-01-14T01:21:00.713Z,7.73
2019-01-14T01:23:32.716Z,11.60
2019-01-14T01:26:02.951Z,7.83
2019-01-14T01:28:33.118Z,9.37
2019-01-14T01:31:04.554Z,7.77
2019-01-14T01:33:34.355Z,11.37
2019-01-14T01:36:04.386Z,10.80
2019-01-14T01:38:34.235Z,8.60
2019-01-14T01:41:04.187Z,10.17
2019-01-14T01:43:34.035Z,13.23
2019-01-14T01:46:03.858Z,8.60
2019-01-14T01:48:33.671Z,8.70
2019-01-14T01:51:03.530Z,8.77
2019-01-14T01:53:33.366Z,13.30
2019-01-14T01:56:03.192Z,8.20
2019-01-14T01:58:33.088Z,7.47
2019-01-14T02:01:02.900Z,8.33
2019-01-14T02:03:32.847Z,9.60
2019-01-14T02:06:02.679Z,10.00
2019-01-14T02:08:32.510Z,8.83
2019-01-14T02:11:02.334Z,18.77
2019-01-14T02:13:32.155Z,9.47
2019-01-14T02:16:02.006Z,9.63
2019-01-14T02:18:32.415Z,11.93
2019-01-14T02:21:03.382Z,10.40
2019-01-14T02:23:33.191Z,8.47
2019-01-14T02:26:03.062Z,12.47
2019-01-14T02:28:32.858Z,9.87
2019-01-14T02:31:02.742Z,9.07
2019-01-14T02:33:32.782Z,11.93
2019-01-14T02:36:03.064Z,14.27
2019-01-14T02:38:32.906Z,9.93
2019-01-14T02:41:02.757Z,13.13
2019-01-14T02:43:32.746Z,10.83
2019-01-14T02:46:02.538Z,9.07
2019-01-14T02:48:32.368Z,15.97
2019-01-14T02:51:02.187Z,12.20
2019-01-14T02:53:32.008Z,13.73
2019-01-14T02:56:01.922Z,15.10
2019-01-14T02:58:35.929Z,11.80
2019-01-14T03:01:05.865Z,13.20
2019-01-14T03:03:40.552Z,16.57
2019-01-14T03:06:08.970Z,15.80
2019-01-14T03:08:38.866Z,14.73
2019-01-14T03:11:08.906Z,11.10
2019-01-14T03:13:38.736Z,10.37
2019-01-14T03:16:08.642Z,14.27
2019-01-14T03:18:41.376Z,10.83
2019-01-14T03:21:10.070Z,19.80
2019-01-14T03:23:47.222Z,13.33
2019-01-14T03:26:17.669Z,11.97
2019-01-14T03:28:50.387Z,10.57
2019-01-14T03:31:20.201Z,15.17
2019-01-14T03:33:54.079Z,15.43
2019-01-14T03:36:23.942Z,10.97
2019-01-14T03:38:55.324Z,15.30
2019-01-14T03:41:25.159Z,10.87
2019-01-14T03:43:54.990Z,12.87
2019-01-14T03:46:26.371Z,10.73
2019-01-14T03:48:56.225Z,11.90
2019-01-14T03:51:25.990Z,11.00
2019-01-14T03:54:01.550Z,13.07
2019-01-14T03:56:31.395Z,12.73
2019-01-14T03:59:15.494Z,18.17
2019-01-14T04:01:45.344Z,11.40
2019-01-14T04:04:15.191Z,12.47
2019-01-14T04:06:45.532Z,16.17
2019-01-14T04:09:15.402Z,16.10
2019-01-14T04:11:47.663Z,17.53
2019-01-14T04:14:16.704Z,14.20
2019-01-14T04:16:46.542Z,20.77
2019-01-14T04:19:16.329Z,17.77
2019-01-14T04:21:46.262Z,15.63
2019-01-14T04:24:16.088Z,19.10
2019-01-14T04:26:47.282Z,13.93
2019-01-14T04:29:18.162Z,22.47
2019-01-14T04:31:47.982Z,14.47
2019-01-14T04:34:17.948Z,19.97
2019-01-14T04:36:48.911Z,16.20
2019-01-14T04:39:19.110Z,15.77
2019-01-14T04:41:50.368Z,15.70
2019-01-14T04:44:22.911Z,17.30
2019-01-14T04:46:52.702Z,14.87
2019-01-14T04:49:22.527Z,14.03
2019-01-14T04:51:52.339Z,16.30
2019-01-14T04:54:22.170Z,20.13
2019-01-14T04:56:53.347Z,14.30
2019-01-14T04:59:23.323Z,19.90
2019-01-14T05:01:53.165Z,17.40
2019-01-14T05:04:22.931Z,18.03
2019-01-14T05:06:53.078Z,18.57
2019-01-14T05:09:23.203Z,22.20
2019-01-14T05:11:53.055Z,19.17
2019-01-14T05:14:22.831Z,16.63
2019-01-14T05:16:52.614Z,21.73
2019-01-14T05:19:23.700Z,20.53
2019-01-14T05:21:53.481Z,21.77
2019-01-14T05:24:23.260Z,15.87
2019-01-14T05:26:53.053Z,19.93
2019-01-14T05:29:22.907Z,20.70
2019-01-14T05:31:52.723Z,21.80
2019-01-14T05:34:24.252Z,20.93
2019-01-14T05:36:55.642Z,17.70
2019-01-14T05:39:27.028Z,19.20
2019-01-14T05:41:56.876Z,17.60
2019-01-14T05:44:26.697Z,25.53
2019-01-14T05:46:57.913Z,20.17
2019-01-14T05:49:27.875Z,17.33
2019-01-14T05:51:57.722Z,16.73
2019-01-14T05:54:28.876Z,16.67
2019-01-14T05:56:58.634Z,18.57
2019-01-14T05:59:28.434Z,15.67
2019-01-14T06:01:59.368Z,23.63
2019-01-14T06:04:30.103Z,16.73
2019-01-14T06:07:01.550Z,19.60
2019-01-14T06:09:31.314Z,15.30
2019-01-14T06:12:02.787Z,24.47
2019-01-14T06:14:32.662Z,14.40
2019-01-14T06:17:02.465Z,17.60
2019-01-14T06:19:33.434Z,21.37
2019-01-14T06:22:03.346Z,19.17
2019-01-14T06:24:33.164Z,13.47
2019-01-14T06:27:02.914Z,23.67
2019-01-14T06:29:32.774Z,26.27
2019-01-14T06:32:02.591Z,24.67
2019-01-14T06:34:32.430Z,22.10
2019-01-14T06:37:02.226Z,21.00
2019-01-14T06:39:32.151Z,20.57
2019-01-14T06:42:01.926Z,16.70
2019-01-14T06:44:31.908Z,21.03
2019-01-14T06:47:03.306Z,22.47
2019-01-14T06:49:33.155Z,25.67
2019-01-14T06:52:02.982Z,16.37
2019-01-14T06:54:32.846Z,20.37
2019-01-14T06:57:03.801Z,14.77
2019-01-14T06:59:33.700Z,23.70
2019-01-14T07:02:03.655Z,18.60
2019-01-14T07:04:33.494Z,24.70
2019-01-14T07:07:03.299Z,22.97
2019-01-14T07:09:34.846Z,14.77
2019-01-14T07:12:04.728Z,21.63
2019-01-14T07:14:34.584Z,24.33
2019-01-14T07:17:16.863Z,18.73
2019-01-14T07:19:47.486Z,25.27
2019-01-14T07:22:17.587Z,36.80
2019-01-14T07:24:47.626Z,21.90
2019-01-14T07:27:30.666Z,30.90
2019-01-14T07:30:02.075Z,25.97
2019-01-14T07:32:32.031Z,25.67
2019-01-14T07:35:02.815Z,26.37
2019-01-14T07:37:32.672Z,38.80
2019-01-14T07:40:02.604Z,23.40
2019-01-14T07:42:32.838Z,40.53
2019-01-14T07:45:02.968Z,21.27
2019-01-14T07:47:33.157Z,23.73
2019-01-14T07:50:03.699Z,30.77
2019-01-14T07:52:33.608Z,26.80
2019-01-14T07:55:06.682Z,22.97
2019-01-14T07:57:37.815Z,17.97
2019-01-14T08:00:20.385Z,17.30
2019-01-14T08:02:50.382Z,27.63
2019-01-14T08:05:22.693Z,21.43
2019-01-14T08:07:52.518Z,18.17
2019-01-14T08:10:23.339Z,34.43
2019-01-14T08:12:53.166Z,22.10
2019-01-14T08:15:23.428Z,18.47
2019-01-14T08:17:53.995Z,17.10
2019-01-14T08:20:23.867Z,16.50
2019-01-14T08:22:58.581Z,24.10
2019-01-14T08:25:28.527Z,16.27
2019-01-14T08:27:58.397Z,18.07
2019-01-14T08:30:35.193Z,18.47
2019-01-14T08:33:05.108Z,20.23
2019-01-14T08:35:34.966Z,14.10
2019-01-14T08:38:04.880Z,17.27
2019-01-14T08:40:34.733Z,13.30
2019-01-14T08:43:04.615Z,12.27
2019-01-14T08:45:37.982Z,10.73
2019-01-14T08:48:10.821Z,9.10
2019-01-14T08:50:40.631Z,9.73
2019-01-14T08:53:10.492Z,9.50
2019-01-14T08:55:40.311Z,14.17
2019-01-14T08:58:10.265Z,9.23
2019-01-14T09:00:41.712Z,8.33
2019-01-14T09:03:11.631Z,9.00
2019-01-14T09:05:42.027Z,10.70
2019-01-14T09:08:12.924Z,11.00
2019-01-14T09:10:42.770Z,11.53
2019-01-14T09:13:12.609Z,10.73
2019-01-14T09:15:42.411Z,9.13
2019-01-14T09:18:12.353Z,5.87
2019-01-14T09:20:42.190Z,8.83
2019-01-14T09:23:12.345Z,10.43
2019-01-14T09:25:42.240Z,11.43
2019-01-14T09:28:12.038Z,14.13
2019-01-14T09:30:41.872Z,9.97
2019-01-14T09:33:11.706Z,13.03
2019-01-14T09:35:41.580Z,10.43
2019-01-14T09:38:35.792Z,10.37
2019-01-14T09:41:04.015Z,14.47
2019-01-14T09:43:34.139Z,9.90
2019-01-14T09:46:05.324Z,11.73
2019-01-14T09:48:35.249Z,11.30
2019-01-14T09:51:05.373Z,12.03
2019-01-14T09:53:35.245Z,12.43
2019-01-14T09:56:05.034Z,17.13
2019-01-14T09:58:34.860Z,10.40
2019-01-14T10:01:04.676Z,9.83
2019-01-14T10:03:34.487Z,16.97
2019-01-14T10:06:04.330Z,15.77
2019-01-14T10:08:34.141Z,18.00
2019-01-14T10:11:04.701Z,12.10
2019-01-14T10:13:34.512Z,11.07
2019-01-14T10:16:04.429Z,12.27
2019-01-14T10:18:38.215Z,14.50
2019-01-14T10:21:09.563Z,12.87
2019-01-14T10:23:40.775Z,12.73
2019-01-14T10:26:17.824Z,10.60
2019-01-14T10:28:48.372Z,15.07
2019-01-14T10:31:19.911Z,17.53
2019-01-14T10:33:49.713Z,12.53
2019-01-14T10:36:19.510Z,10.50
2019-01-14T10:38:50.760Z,11.20
2019-01-14T10:41:20.634Z,17.47
2019-01-14T10:43:50.483Z,12.47
2019-01-14T10:46:20.314Z,13.97
2019-01-14T10:48:50.156Z,11.57
2019-01-14T10:51:20.944Z,12.70
2019-01-14T10:53:50.917Z,19.40
2019-01-14T10:56:20.796Z,13.83
2019-01-14T10:58:50.752Z,16.57
2019-01-14T11:01:20.638Z,13.47
2019-01-14T11:03:50.488Z,14.30
2019-01-14T11:06:20.733Z,11.90
2019-01-14T11:08:57.388Z,8.53
2019-01-14T11:11:22.154Z,9.80
2019-01-14T11:13:52.376Z,8.90
2019-01-14T11:16:22.567Z,9.00
2019-01-14T11:18:52.380Z,17.57
2019-01-14T11:21:23.818Z,17.00
2019-01-14T11:23:53.652Z,10.20
2019-01-14T11:26:23.514Z,26.50
2019-01-14T11:28:53.554Z,10.73
2019-01-14T11:31:23.492Z,15.90
2019-01-14T11:33:54.722Z,24.97
2019-01-14T11:36:24.660Z,7.93
2019-01-14T11:38:54.992Z,8.33
2019-01-14T11:41:25.132Z,11.80
2019-01-14T11:43:56.940Z,8.33
2019-01-14T11:46:29.754Z,11.50
2019-01-14T11:49:01.264Z,7.87
2019-01-14T11:51:33.415Z,10.30
2019-01-14T11:54:04.266Z,16.40
2019-01-14T11:56:34.494Z,9.50
2019-01-14T11:59:08.599Z,10.87
2019-01-14T12:01:38.759Z,12.80
2019-01-14T12:04:11.772Z,9.57
2019-01-14T12:06:41.373Z,10.17
2019-01-14T12:09:13.223Z,14.10
2019-01-14T12:11:43.947Z,7.83
2019-01-14T12:14:13.808Z,15.03
2019-01-14T12:16:45.610Z,11.43
2019-01-14T12:19:15.833Z,8.67
2019-01-14T12:21:48.395Z,11.17
2019-01-14T12:24:21.826Z,13.10
2019-01-14T12:26:54.131Z,13.07
2019-01-14T12:29:25.702Z,4.17
2019-01-14T12:31:56.931Z,11.93
2019-01-14T12:34:26.965Z,10.10
2019-01-14T12:37:01.257Z,10.27
2019-01-14T12:39:32.777Z,12.63
2019-01-14T12:42:03.228Z,12.43
2019-01-14T12:44:33.773Z,9.60
2019-01-14T12:47:15.412Z,17.50
2019-01-14T12:49:45.232Z,7.60
2019-01-14T12:52:15.134Z,8.97
2019-01-14T12:54:45.347Z,13.23
2019-01-14T12:57:15.381Z,6.30
2019-01-14T12:59:45.354Z,10.57
2019-01-14T13:02:16.569Z,20.67
2019-01-14T13:04:47.926Z,52.37
2019-01-14T13:07:30.360Z,10.03
2019-01-14T13:10:00.326Z,16.90
2019-01-14T13:12:30.275Z,13.00
2019-01-14T13:15:00.170Z,14.43
2019-01-14T13:17:30.472Z,12.10
2019-01-14T13:22:44.624Z,27.53
2019-01-14T13:25:14.685Z,9.77
2019-01-14T13:27:45.320Z,20.87
2019-01-14T13:30:18.998Z,16.27
2019-01-14T13:32:51.365Z,22.27
2019-01-14T13:35:21.324Z,11.23
2019-01-14T13:37:51.853Z,12.77
2019-01-14T13:40:21.739Z,15.83
2019-01-14T13:42:54.473Z,31.77
2019-01-14T13:45:24.594Z,34.60
2019-01-14T13:47:54.568Z,21.17
2019-01-14T13:50:26.126Z,20.97
2019-01-14T13:52:56.277Z,28.10
2019-01-14T13:55:27.010Z,18.20
2019-01-14T13:57:59.827Z,18.80
2019-01-14T14:00:31.031Z,20.07
2019-01-14T14:03:01.405Z,22.57
2019-01-14T14:05:32.197Z,25.00
2019-01-14T14:08:02.622Z,28.13
2019-01-14T14:10:35.832Z,29.63
2019-01-14T14:13:06.121Z,19.50
2019-01-14T14:15:36.397Z,22.30
2019-01-14T14:18:06.921Z,35.77
2019-01-14T14:20:38.397Z,15.30
2019-01-14T14:23:08.729Z,24.63
2019-01-14T14:25:40.615Z,22.90
2019-01-14T14:28:11.055Z,19.20
2019-01-14T14:30:41.053Z,12.27
2019-01-14T14:33:11.266Z,14.67
2019-01-14T14:35:42.472Z,19.60
2019-01-14T14:38:13.793Z,7.33
2019-01-14T14:40:43.596Z,8.83
2019-01-14T14:43:14.607Z,23.83
2019-01-14T14:45:46.171Z,7.83
2019-01-14T14:48:16.213Z,15.43
2019-01-14T14:50:46.310Z,14.83
2019-01-14T14:53:16.430Z,12.77
2019-01-14T14:55:46.705Z,23.00
2019-01-14T14:58:17.282Z,13.67
2019-01-14T15:00:47.503Z,10.20
2019-01-14T15:03:17.793Z,18.17
2019-01-14T15:05:48.516Z,10.20
2019-01-14T15:08:19.771Z,14.97
2019-01-14T15:10:49.980Z,22.10
2019-01-14T15:13:19.746Z,22.33
2019-01-14T15:15:50.089Z,26.27
2019-01-14T15:18:21.739Z,15.27
2019-01-14T15:20:53.692Z,17.80
2019-01-14T15:23:25.713Z,20.47
2019-01-14T15:25:56.346Z,20.20
2019-01-14T15:28:27.145Z,26.07
2019-01-14T15:30:59.301Z,12.60
2019-01-14T15:33:29.846Z,33.40
2019-01-14T15:36:01.870Z,24.87
2019-01-14T15:38:31.745Z,30.70
2019-01-14T15:41:02.104Z,10.10
2019-01-14T15:43:31.964Z,11.37
2019-01-14T15:46:01.950Z,22.57
2019-01-14T15:48:32.900Z,11.30
2019-01-14T15:51:02.830Z,8.03
2019-01-14T15:53:33.229Z,6.40
2019-01-14T15:56:03.118Z,15.57
2019-01-14T15:58:34.737Z,12.60
2019-01-14T16:01:04.602Z,6.17
2019-01-14T16:03:34.669Z,8.47
2019-01-14T16:06:05.580Z,11.17
2019-01-14T16:08:35.622Z,6.87
2019-01-14T16:11:05.940Z,7.73
2019-01-14T16:13:36.184Z,9.90
2019-01-14T16:16:10.957Z,10.83
2019-01-14T16:18:41.683Z,13.40
2019-01-14T16:21:14.032Z,15.70
2019-01-14T16:23:44.581Z,12.07
2019-01-14T16:26:16.807Z,14.23
2019-01-14T16:28:46.823Z,16.37
2019-01-14T16:31:18.078Z,33.77
2019-01-14T16:33:48.268Z,14.23
2019-01-14T16:36:18.700Z,22.30
2019-01-14T16:38:49.900Z,15.77
2019-01-14T16:41:19.768Z,16.10
2019-01-14T16:43:50.222Z,21.60
2019-01-14T16:46:21.483Z,48.87
2019-01-14T16:48:53.427Z,24.63
2019-01-14T16:51:24.906Z,14.93
2019-01-14T16:53:55.913Z,23.43
2019-01-14T16:56:26.421Z,14.67
2019-01-14T16:58:57.559Z,21.63
2019-01-14T17:01:27.892Z,19.57
2019-01-14T17:03:58.025Z,23.93
2019-01-14T17:06:27.854Z,19.43
2019-01-14T17:08:57.671Z,15.50
2019-01-14T17:11:28.582Z,22.80
2019-01-14T17:14:02.274Z,18.53
2019-01-14T17:16:32.587Z,28.43
2019-01-14T17:19:03.419Z,18.13
2019-01-14T17:21:34.064Z,22.20
2019-01-14T17:24:04.077Z,26.03
2019-01-14T17:26:34.213Z,15.00
2019-01-14T17:29:06.151Z,19.57
2019-01-14T17:31:37.747Z,16.97
2019-01-14T17:34:10.759Z,25.20
2019-01-14T17:36:42.259Z,30.07
2019-01-14T17:39:12.301Z,23.17
2019-01-14T17:41:46.203Z,31.83
2019-01-14T17:44:16.305Z,25.23
2019-01-14T17:46:46.680Z,15.87
2019-01-14T17:49:17.307Z,11.10
2019-01-14T17:51:49.727Z,18.93
2019-01-14T17:54:19.901Z,15.90
2019-01-14T17:56:52.129Z,38.27
2019-01-14T17:59:24.653Z,18.40
2019-01-14T18:01:55.786Z,23.30
2019-01-14T18:04:25.731Z,18.53
2019-01-14T18:06:57.862Z,14.43
2019-01-14T18:09:28.751Z,13.57
2019-01-14T18:11:59.607Z,24.23
2019-01-14T18:14:29.837Z,18.70
2019-01-14T18:17:03.233Z,12.33
2019-01-14T18:19:33.402Z,20.30
2019-01-14T18:22:04.511Z,16.93
2019-01-14T18:24:34.749Z,15.10
2019-01-14T18:27:04.699Z,15.07
2019-01-14T18:29:35.261Z,16.77
2019-01-14T18:32:05.459Z,19.70
2019-01-14T18:34:42.741Z,15.97
2019-01-14T18:37:14.451Z,18.37
2019-01-14T18:39:45.255Z,11.83
2019-01-14T18:42:20.315Z,23.23
2019-01-14T18:44:50.835Z,20.97
2019-01-14T18:47:20.856Z,23.03
2019-01-14T18:49:52.427Z,16.87
2019-01-14T18:52:22.577Z,22.90
2019-01-14T18:54:54.996Z,21.57
2019-01-14T18:57:25.027Z,31.03
2019-01-14T18:59:58.711Z,17.80
2019-01-14T19:02:29.661Z,20.83
2019-01-14T19:04:59.703Z,24.23
2019-01-14T19:07:30.323Z,23.87
2019-01-14T19:10:02.349Z,20.17
2019-01-14T19:12:34.153Z,38.67
2019-01-14T19:15:06.523Z,25.37
2019-01-14T19:17:36.591Z,27.53
2019-01-14T19:20:15.769Z,49.13
2019-01-14T19:22:47.895Z,29.10
2019-01-14T19:25:17.797Z,25.57
2019-01-14T19:27:48.445Z,29.33
2019-01-14T19:30:21.255Z,22.53
2019-01-14T19:36:18.445Z,19.80
2019-01-14T19:38:52.722Z,21.83
2019-01-14T19:41:26.705Z,23.03
2019-01-14T19:43:57.599Z,17.20
2019-01-14T19:46:28.286Z,19.43
2019-01-14T19:49:00.021Z,20.50
2019-01-14T19:51:30.563Z,14.83
2019-01-14T19:54:02.692Z,17.03
2019-01-14T19:56:34.997Z,13.43
2019-01-14T19:59:06.854Z,13.67
2019-01-14T20:01:38.573Z,17.47
2019-01-14T20:04:10.221Z,21.73
2019-01-14T20:06:42.312Z,15.70
2019-01-14T20:09:13.150Z,22.63
2019-01-14T20:11:46.141Z,24.33
2019-01-14T20:14:20.454Z,15.63
2019-01-14T20:16:56.795Z,22.20
2019-01-14T20:19:26.795Z,20.67
2019-01-14T20:21:57.031Z,18.90
2019-01-14T20:24:27.542Z,34.87
2019-01-14T20:26:59.091Z,25.07
2019-01-14T20:29:29.595Z,27.97
2019-01-14T20:32:00.021Z,18.40
2019-01-14T20:34:54.176Z,17.50
2019-01-14T20:37:24.939Z,24.03
2019-01-14T20:39:55.625Z,23.33
2019-01-14T20:42:26.679Z,20.60
2019-01-14T20:44:59.367Z,19.73
2019-01-14T20:47:29.683Z,27.27
2019-01-14T20:49:59.991Z,21.10
2019-01-14T20:52:30.176Z,20.77
2019-01-14T20:55:01.909Z,20.90
2019-01-14T20:57:35.033Z,23.23
2019-01-14T21:00:14.541Z,23.17
2019-01-14T21:02:45.909Z,57.73
2019-01-14T21:05:16.583Z,18.77
2019-01-14T21:07:51.401Z,22.57
2019-01-14T21:10:21.861Z,32.93
2019-01-14T21:12:52.782Z,24.53
2019-01-14T21:15:28.325Z,22.10
2019-01-14T21:18:00.208Z,23.00
2019-01-14T21:20:30.493Z,24.50
2019-01-14T21:23:00.560Z,19.70
2019-01-14T21:25:32.017Z,26.33
2019-01-14T21:28:05.382Z,20.27
2019-01-14T21:30:35.382Z,23.57
2019-01-14T21:33:07.293Z,19.57
2019-01-14T21:35:40.142Z,32.57
2019-01-14T21:38:11.383Z,18.27
2019-01-14T21:40:41.372Z,26.63
2019-01-14T21:43:13.073Z,22.53
2019-01-14T21:45:42.933Z,30.97
2019-01-14T21:48:17.126Z,36.67
2019-01-14T21:50:44.361Z,17.00
2019-01-14T21:53:14.504Z,29.57
2019-01-14T21:55:44.384Z,16.33
2019-01-14T21:58:14.342Z,28.10
2019-01-14T22:00:44.259Z,28.10
2019-01-14T22:03:17.262Z,32.77
2019-01-14T22:05:49.345Z,22.90
2019-01-14T22:08:19.930Z,34.10
2019-01-14T22:10:50.609Z,34.07
2019-01-14T22:13:20.499Z,47.40
2019-01-14T22:15:50.359Z,47.53
2019-01-14T22:18:20.154Z,38.87
2019-01-14T22:20:50.028Z,30.53
2019-01-14T22:23:25.529Z,47.00
2019-01-14T22:25:56.553Z,73.23
2019-01-14T22:28:26.619Z,46.10
2019-01-14T22:30:58.035Z,44.73
2019-01-14T22:33:28.116Z,62.57
2019-01-14T22:35:58.705Z,41.87
2019-01-14T22:38:29.060Z,35.63
2019-01-14T22:41:00.000Z,31.63
2019-01-14T22:43:30.449Z,27.30
2019-01-14T22:46:00.699Z,43.23
2019-01-14T22:48:31.421Z,23.87
2019-01-14T22:51:04.300Z,37.60
2019-01-14T22:53:36.871Z,27.83
2019-01-14T22:56:08.594Z,37.25
2019-01-14T22:58:38.460Z,41.37
2019-01-14T23:01:14.261Z,24.97
2019-01-14T23:03:45.559Z,19.37
2019-01-14T23:06:16.441Z,27.57
2019-01-14T23:08:46.959Z,25.20
2019-01-14T23:11:16.909Z,25.10
2019-01-14T23:13:47.190Z,39.33
2019-01-14T23:16:17.301Z,19.90
2019-01-14T23:18:47.106Z,28.20
2019-01-14T23:21:16.945Z,30.80
2019-01-14T23:23:46.799Z,29.70
2019-01-14T23:26:17.668Z,25.53
2019-01-14T23:28:47.478Z,19.97
2019-01-14T23:31:17.389Z,30.97
2019-01-14T23:33:47.165Z,18.90
2019-01-14T23:36:20.193Z,19.57
2019-01-14T23:38:50.157Z,45.43
2019-01-14T23:41:22.114Z,56.10
2019-01-14T23:43:53.034Z,24.23
2019-01-14T23:46:22.883Z,28.83
2019-01-14T23:48:52.708Z,30.47
2019-01-14T23:51:23.947Z,21.63
2019-01-14T23:53:53.797Z,23.20
2019-01-14T23:56:23.634Z,30.00
2019-01-14T23:58:53.510Z,28.00
